Centennial, WY (82055)

7:55 AM MDT on August 24, 2016 (GMT -0600)
West of Centennial WY | | Change Station

Elev 8274 ft 41.30 °N, 106.15 °W | Updated 1 second ago

Overcast
Overcast
54.0 °F
Feels Like 54.0 °F
N
1.3
Wind Variable Wind from SW
Gusts 2.5 mph

Today
High -- | Low -- °F
--% Chance of Precip.
Yesterday
High -- | Low -- °F
Precip. -- in
Pressure 30.02 in
Visibility 10.0 miles
Clouds Few 8500 ft
Overcast 11000 ft
Dew Point 36 °F
Humidity 51%
Rainfall 0.00 in
Snow Depth Not available.
6:23 AM 7:49 PM
Waning Gibbous, 57% visible
METAR KLAR 241353Z AUTO 30004KT 10SM FEW085 OVC110 11/00 A3030 RMK AO2 SLP166 T01110000 TSNO
Pressure 30.02 in
Visibility 10.0 miles
Clouds Few 8500 ft
Overcast 11000 ft
Dew Point 36 °F
Humidity 51%
Rainfall 0.00 in
Snow Depth Not available.
6:23 AM 7:49 PM
Waning Gibbous, 57% visible
METAR KLAR 241353Z AUTO 30004KT 10SM FEW085 OVC110 11/00 A3030 RMK AO2 SLP166 T01110000 TSNO

10-Day Weather Forecast

Almanac

Astronomy

Aug. 24, 2016 Rise Set
Actual Time
Civil Twilight
Nautical Twilight
Astronomical Twilight
Moon
Length of Visible Light
Length of Day
Tomorrow will be .
, % of the Moon is Illuminated

Today's Extremes

State Highs State Lows

Community

WunderPhotos

Upload Photos

1,934,598 photos uploaded!

WunderBlog® & News

Nearby

Air Quality

  Air Quality AQ Index Pollutant
Not available.

Snow Depth

Station Depth Elevation

Earthquake Activity

City Distance Mag. Time & Date
Minimum magnitude displayed is 2.5.

Coastal Water Temperatures

Place Temperature

Stations

Nearby Weather Stations

Station Location Temp. Windchill Dew Point Humidity Wind Precip. Elev Updated Type
                   

Watches & Warnings

There are currently no watches in effect.